createdAt,value
2023-03-15T00:02:05.264Z,97226.66
2023-03-15T00:04:33.133Z,97240.13
2023-03-15T00:07:00.874Z,97240.59
2023-03-15T00:09:28.408Z,97250.16
2023-03-15T00:11:55.905Z,97251.41
2023-03-15T00:14:23.491Z,97256.00
2023-03-15T00:16:51.034Z,97252.53
2023-03-15T00:19:18.538Z,97260.72
2023-03-15T00:21:46.016Z,97262.13
2023-03-15T00:24:13.528Z,97274.19
2023-03-15T00:26:41.042Z,97271.16
2023-03-15T00:29:09.567Z,97268.53
2023-03-15T00:31:37.105Z,97268.38
2023-03-15T00:34:04.729Z,97271.84
2023-03-15T00:36:32.977Z,97275.50
2023-03-15T00:39:00.494Z,97287.16
2023-03-15T00:41:28.193Z,97284.81
2023-03-15T00:43:56.191Z,97293.44
2023-03-15T00:46:23.883Z,97292.44
2023-03-15T00:48:52.080Z,97299.13
2023-03-15T00:51:23.239Z,97301.03
2023-03-15T00:53:53.162Z,97302.19
2023-03-15T00:56:24.661Z,97313.59
2023-03-15T00:58:53.044Z,97312.19
2023-03-15T01:01:24.942Z,97320.09
2023-03-15T01:03:53.016Z,97314.00
2023-03-15T01:06:24.765Z,97321.22
2023-03-15T01:08:55.625Z,97314.25
2023-03-15T01:11:27.192Z,97320.94
2023-03-15T01:13:58.142Z,97320.66
2023-03-15T01:16:27.796Z,97316.50
2023-03-15T01:18:56.191Z,97319.72
2023-03-15T01:21:24.427Z,97328.31
2023-03-15T01:23:53.286Z,97327.75
2023-03-15T01:26:23.436Z,97329.28
2023-03-15T01:28:51.060Z,97325.50
2023-03-15T01:31:24.565Z,97333.16
2023-03-15T01:33:52.649Z,97332.72
2023-03-15T01:36:20.696Z,97330.63
2023-03-15T01:38:49.543Z,97333.53
2023-03-15T01:41:19.942Z,97334.50
2023-03-15T01:43:47.593Z,97342.00
2023-03-15T01:46:27.688Z,97348.25
2023-03-15T01:49:32.393Z,97350.25
2023-03-15T01:52:17.661Z,97350.41
2023-03-15T01:55:01.141Z,97356.06
2023-03-15T01:57:41.678Z,97359.03
2023-03-15T02:00:19.109Z,97359.28
2023-03-15T02:03:21.438Z,97360.47
2023-03-15T02:06:06.527Z,97363.13
2023-03-15T02:08:44.847Z,97361.78
2023-03-15T02:11:13.505Z,97364.69
2023-03-15T02:13:42.301Z,97375.25
2023-03-15T02:16:10.884Z,97380.41
2023-03-15T02:18:45.238Z,97369.44
2023-03-15T02:21:59.155Z,97362.34
2023-03-15T02:24:46.277Z,97370.75
2023-03-15T02:27:14.437Z,97371.72
2023-03-15T02:29:42.594Z,97379.28
2023-03-15T02:32:10.228Z,97382.59
2023-03-15T02:34:37.761Z,97392.06
2023-03-15T02:37:05.304Z,97385.66
2023-03-15T02:39:32.850Z,97399.59
2023-03-15T02:42:01.811Z,97394.31
2023-03-15T02:44:37.178Z,97401.25
2023-03-15T02:47:13.410Z,97404.56
2023-03-15T02:49:45.163Z,97416.97
2023-03-15T02:52:13.917Z,97420.25
2023-03-15T02:54:43.538Z,97424.19
2023-03-15T02:57:17.793Z,97429.88
2023-03-15T02:59:50.642Z,97433.94
2023-03-15T03:02:19.008Z,97442.56
2023-03-15T03:04:46.723Z,97442.69
2023-03-15T03:07:14.277Z,97444.34
2023-03-15T03:09:47.945Z,97457.50
2023-03-15T03:12:16.839Z,97455.75
2023-03-15T03:14:44.379Z,97464.47
2023-03-15T03:17:16.457Z,97466.56
2023-03-15T03:19:44.861Z,97465.44
2023-03-15T03:22:13.342Z,97480.31
2023-03-15T03:24:46.007Z,97478.38
2023-03-15T03:27:16.494Z,97486.31
2023-03-15T03:29:46.246Z,97487.97
2023-03-15T03:32:14.263Z,97487.72
2023-03-15T03:34:48.219Z,97491.47
2023-03-15T03:37:20.464Z,97493.06
2023-03-15T03:40:09.238Z,97504.22
2023-03-15T03:42:37.430Z,97506.28
2023-03-15T03:45:07.198Z,97504.63
2023-03-15T03:47:39.261Z,97508.78
2023-03-15T03:50:07.473Z,97510.31
2023-03-15T03:52:35.065Z,97510.72
2023-03-15T03:55:08.054Z,97520.31
2023-03-15T03:57:35.521Z,97518.78
2023-03-15T04:00:07.592Z,97522.34
2023-03-15T04:02:45.496Z,97528.59
2023-03-15T04:05:15.767Z,97535.22
2023-03-15T04:07:44.147Z,97527.44
2023-03-15T04:10:14.815Z,97533.41
2023-03-15T04:12:44.819Z,97541.91
2023-03-15T04:15:13.998Z,97542.78
2023-03-15T04:17:42.405Z,97549.13
2023-03-15T04:20:12.893Z,97544.56
2023-03-15T04:22:49.621Z,97546.59
2023-03-15T04:25:27.654Z,97563.72
2023-03-15T04:28:11.281Z,97553.69
2023-03-15T04:30:58.605Z,97569.41
2023-03-15T04:33:39.661Z,97568.19
2023-03-15T04:36:07.404Z,97565.66
2023-03-15T04:39:04.622Z,97557.63
2023-03-15T04:41:51.004Z,97567.34
2023-03-15T04:44:40.812Z,97567.34
2023-03-15T04:47:10.995Z,97564.00
2023-03-15T04:50:17.797Z,97573.59
2023-03-15T04:52:55.465Z,97563.72
2023-03-15T04:55:41.473Z,97566.38
2023-03-15T04:58:22.679Z,97578.50
2023-03-15T05:01:04.491Z,97573.06
2023-03-15T05:03:54.238Z,97572.34
2023-03-15T05:06:53.760Z,97560.84
2023-03-15T05:09:46.647Z,97561.66
2023-03-15T05:12:46.601Z,97563.59
2023-03-15T05:15:19.951Z,97566.25
2023-03-15T05:17:56.238Z,97564.13
2023-03-15T05:20:38.203Z,97556.22
2023-03-15T05:23:17.176Z,97565.09
2023-03-15T05:25:54.193Z,97568.84
2023-03-15T05:28:26.476Z,97568.84
2023-03-15T05:30:58.413Z,97565.50
2023-03-15T05:33:47.513Z,97579.66
2023-03-15T05:36:34.696Z,97576.28
2023-03-15T05:39:22.746Z,97588.66
2023-03-15T05:42:07.549Z,97578.22
2023-03-15T05:44:54.172Z,97582.78
2023-03-15T05:47:40.450Z,97584.22
2023-03-15T05:50:17.841Z,97586.84
2023-03-15T05:52:55.607Z,97587.00
2023-03-15T05:55:46.247Z,97588.53
2023-03-15T05:58:29.957Z,97582.31
2023-03-15T06:01:36.178Z,97590.06
2023-03-15T06:04:17.318Z,97594.41
2023-03-15T06:06:46.327Z,97593.16
2023-03-15T06:09:14.347Z,97593.75
2023-03-15T06:11:41.874Z,97591.94
2023-03-15T06:14:13.318Z,97596.00
2023-03-15T06:16:47.237Z,97600.19
2023-03-15T06:19:14.784Z,97607.13
2023-03-15T06:21:42.468Z,97610.47
2023-03-15T06:24:15.899Z,97608.66
2023-03-15T06:26:43.540Z,97611.06
2023-03-15T06:29:11.684Z,97616.22
2023-03-15T06:31:39.547Z,97610.81
2023-03-15T06:34:10.419Z,97616.81
2023-03-15T06:36:37.995Z,97605.13
2023-03-15T06:39:05.814Z,97606.41
2023-03-15T06:41:33.421Z,97614.91
2023-03-15T06:44:12.058Z,97608.78
2023-03-15T06:46:41.027Z,97612.88
2023-03-15T06:49:08.792Z,97628.44
2023-03-15T06:51:38.253Z,97629.84
2023-03-15T06:54:06.074Z,97630.13
2023-03-15T06:56:37.259Z,97636.81
2023-03-15T06:59:05.427Z,97627.53
2023-03-15T07:01:33.073Z,97625.72
2023-03-15T07:04:01.010Z,97630.75
2023-03-15T07:06:29.245Z,97626.16
2023-03-15T07:08:56.802Z,97625.88
2023-03-15T07:11:24.288Z,97629.34
2023-03-15T07:13:51.860Z,97635.22
2023-03-15T07:16:19.379Z,97635.09
2023-03-15T07:18:46.974Z,97652.47
2023-03-15T07:21:14.681Z,97649.38
2023-03-15T07:23:42.351Z,97642.97
2023-03-15T07:26:09.924Z,97652.44
2023-03-15T07:28:37.413Z,97658.41
2023-03-15T07:31:06.280Z,97663.31
2023-03-15T07:33:36.421Z,97650.53
2023-03-15T07:36:06.328Z,97656.13
2023-03-15T07:38:35.363Z,97658.50
2023-03-15T07:41:05.591Z,97660.06
2023-03-15T07:43:33.943Z,97662.41
2023-03-15T07:46:13.819Z,97663.13
2023-03-15T07:48:41.380Z,97664.50
2023-03-15T07:51:08.997Z,97661.63
2023-03-15T07:53:36.481Z,97665.94
2023-03-15T07:56:04.771Z,97668.88
2023-03-15T07:58:32.279Z,97671.09
2023-03-15T08:00:59.790Z,97665.69
2023-03-15T08:03:27.629Z,97667.78
2023-03-15T08:05:57.296Z,97672.69
2023-03-15T08:08:25.038Z,97666.03
2023-03-15T08:10:52.525Z,97663.66
2023-03-15T08:13:20.039Z,97671.16
2023-03-15T08:15:47.888Z,97665.06
2023-03-15T08:18:15.368Z,97661.31
2023-03-15T08:20:42.884Z,97666.06
2023-03-15T08:23:16.479Z,97665.34
2023-03-15T08:25:45.156Z,97661.31
2023-03-15T08:28:12.944Z,97662.41
2023-03-15T08:30:40.825Z,97661.47
2023-03-15T08:33:09.002Z,97675.41
2023-03-15T08:35:36.654Z,97683.75
2023-03-15T08:38:04.320Z,97682.22
2023-03-15T08:40:31.921Z,97687.22
2023-03-15T08:43:00.101Z,97685.13
2023-03-15T08:45:27.873Z,97687.06
2023-03-15T08:47:59.217Z,97690.66
2023-03-15T08:50:31.545Z,97693.44
2023-03-15T08:52:59.122Z,97695.53
2023-03-15T08:55:26.659Z,97695.94
2023-03-15T08:57:54.546Z,97694.38
2023-03-15T09:00:25.525Z,97702.34
2023-03-15T09:02:53.257Z,97697.72
2023-03-15T09:05:22.629Z,97699.25
2023-03-15T09:07:52.868Z,97703.44
2023-03-15T09:10:21.971Z,97702.31
2023-03-15T09:12:53.494Z,97709.41
2023-03-15T09:15:21.928Z,97719.84
2023-03-15T09:17:53.424Z,97715.34
2023-03-15T09:20:22.852Z,97731.63
2023-03-15T09:22:53.748Z,97721.94
2023-03-15T09:25:22.146Z,97723.19
2023-03-15T09:27:49.882Z,97727.88
2023-03-15T09:30:17.785Z,97721.97
2023-03-15T09:32:45.887Z,97724.91
2023-03-15T09:35:17.863Z,97729.53
2023-03-15T09:37:46.694Z,97727.78
2023-03-15T09:40:39.352Z,97721.03
2023-03-15T09:43:06.699Z,97731.31
2023-03-15T09:46:23.062Z,97726.22
2023-03-15T09:49:22.069Z,97723.69
2023-03-15T09:52:06.527Z,97725.69
2023-03-15T09:54:44.481Z,97725.16
2023-03-15T09:57:22.891Z,97723.13
2023-03-15T09:59:54.222Z,97725.69
2023-03-15T10:02:28.197Z,97722.34
2023-03-15T10:05:08.009Z,97721.06
2023-03-15T10:07:35.956Z,97724.59
2023-03-15T10:10:06.856Z,97724.19
2023-03-15T10:12:42.623Z,97725.06
2023-03-15T10:15:39.129Z,97723.84
2023-03-15T10:18:27.934Z,97730.56
2023-03-15T10:21:07.513Z,97729.09
2023-03-15T10:23:53.626Z,97715.44
2023-03-15T10:26:34.916Z,97712.00
2023-03-15T10:29:10.162Z,97711.63
2023-03-15T10:31:44.825Z,97711.66
2023-03-15T10:34:14.763Z,97716.41
2023-03-15T10:36:49.852Z,97714.34
2023-03-15T10:39:17.371Z,97716.88
2023-03-15T10:41:48.502Z,97715.34
2023-03-15T10:44:26.138Z,97726.66
2023-03-15T10:47:24.180Z,97721.72
2023-03-15T10:49:59.327Z,97731.81
2023-03-15T10:52:31.775Z,97730.22
2023-03-15T10:55:28.134Z,97725.00
2023-03-15T10:58:14.754Z,97723.09
2023-03-15T11:00:51.290Z,97724.00
2023-03-15T11:03:24.615Z,97733.88
2023-03-15T11:05:55.323Z,97725.97
2023-03-15T11:08:38.668Z,97726.97
2023-03-15T11:11:08.138Z,97722.25
2023-03-15T11:13:39.116Z,97731.72
2023-03-15T11:16:20.716Z,97729.69
2023-03-15T11:18:59.772Z,97734.38
2023-03-15T11:21:33.535Z,97735.25
2023-03-15T11:24:06.651Z,97731.78
2023-03-15T11:26:39.340Z,97736.22
2023-03-15T11:29:33.973Z,97735.94
2023-03-15T11:32:03.610Z,97740.88
2023-03-15T11:35:02.305Z,97742.72
2023-03-15T11:38:03.142Z,97750.63
2023-03-15T11:40:43.254Z,97746.16
2023-03-15T11:43:49.386Z,97750.53
2023-03-15T11:46:36.778Z,97749.16
2023-03-15T11:49:24.794Z,97760.94
2023-03-15T11:51:56.491Z,97744.50
2023-03-15T11:54:28.868Z,97741.94
2023-03-15T11:57:06.308Z,97735.53
2023-03-15T11:59:37.771Z,97741.53
2023-03-15T12:02:14.134Z,97740.00
2023-03-15T12:04:50.026Z,97746.53
2023-03-15T12:07:23.778Z,97750.03
2023-03-15T12:09:57.294Z,97736.41
2023-03-15T12:12:24.753Z,97738.59
2023-03-15T12:15:18.499Z,97741.94
2023-03-15T12:17:56.045Z,97746.63
2023-03-15T12:20:40.808Z,97754.97
2023-03-15T12:23:16.886Z,97752.75
2023-03-15T12:26:05.389Z,97752.75
2023-03-15T12:29:01.086Z,97755.94
2023-03-15T12:31:48.824Z,97761.03
2023-03-15T12:34:27.203Z,97766.09
2023-03-15T12:37:04.032Z,97774.44
2023-03-15T12:39:46.145Z,97776.19
2023-03-15T12:42:31.806Z,97774.41
2023-03-15T12:45:17.544Z,97778.47
2023-03-15T12:47:53.525Z,97784.19
2023-03-15T12:50:39.258Z,97779.06
2023-03-15T12:53:30.760Z,97782.81
2023-03-15T12:56:19.041Z,97779.03
2023-03-15T12:58:51.600Z,97771.75
2023-03-15T13:01:19.264Z,97780.63
2023-03-15T13:03:47.184Z,97774.63
2023-03-15T13:06:52.296Z,97763.47
2023-03-15T13:10:01.305Z,97771.97
2023-03-15T13:12:41.579Z,97773.22
2023-03-15T13:15:17.174Z,97769.88
2023-03-15T13:17:58.762Z,97773.50
2023-03-15T13:20:48.299Z,97767.09
2023-03-15T13:23:28.836Z,97771.38
2023-03-15T13:26:29.976Z,97777.91
2023-03-15T13:29:08.226Z,97773.59
2023-03-15T13:31:37.145Z,97773.28
2023-03-15T13:34:22.049Z,97768.13
2023-03-15T13:36:55.926Z,97766.72
2023-03-15T13:39:30.165Z,97778.84
2023-03-15T13:42:19.545Z,97774.63
2023-03-15T13:44:47.058Z,97769.41
2023-03-15T13:47:24.146Z,97777.69
2023-03-15T13:49:56.260Z,97775.81
2023-03-15T13:52:23.863Z,97776.31
2023-03-15T13:54:53.835Z,97760.78
2023-03-15T13:57:22.588Z,97763.47
2023-03-15T14:00:01.072Z,97771.63
2023-03-15T14:02:45.805Z,97753.31
2023-03-15T14:05:27.159Z,97761.22
2023-03-15T14:08:02.933Z,97758.63
2023-03-15T14:10:36.599Z,97760.47
2023-03-15T14:13:29.118Z,97762.50
2023-03-15T14:16:14.054Z,97762.88
2023-03-15T14:18:42.592Z,97762.00
2023-03-15T14:21:17.506Z,97757.72
2023-03-15T14:23:48.723Z,97768.03
2023-03-15T14:26:27.978Z,97774.44
2023-03-15T14:29:08.330Z,97777.00
2023-03-15T14:31:41.592Z,97786.09
2023-03-15T14:34:36.539Z,97791.22
2023-03-15T14:37:27.286Z,97785.50
2023-03-15T14:40:24.489Z,97782.59
2023-03-15T14:42:52.620Z,97777.41
2023-03-15T14:45:22.290Z,97781.03
2023-03-15T14:48:08.381Z,97776.97
2023-03-15T14:50:40.734Z,97774.47
2023-03-15T14:53:14.626Z,97774.16
2023-03-15T14:55:42.192Z,97781.00
2023-03-15T14:58:21.420Z,97784.06
2023-03-15T15:00:53.979Z,97784.75
2023-03-15T15:03:38.574Z,97790.59
2023-03-15T15:06:10.756Z,97789.22
2023-03-15T15:08:42.516Z,97789.53
2023-03-15T15:11:10.668Z,97797.75
2023-03-15T15:13:39.922Z,97807.25
2023-03-15T15:16:08.694Z,97800.56
2023-03-15T15:18:37.420Z,97817.75
2023-03-15T15:21:33.725Z,97814.66
2023-03-15T15:24:11.521Z,97818.03
2023-03-15T15:26:39.070Z,97814.97
2023-03-15T15:29:06.987Z,97807.41
2023-03-15T15:31:34.661Z,97806.72
2023-03-15T15:34:02.232Z,97804.50
2023-03-15T15:36:42.807Z,97805.50
2023-03-15T15:39:20.911Z,97808.84
2023-03-15T15:41:49.389Z,97811.19
2023-03-15T15:44:21.743Z,97815.22
2023-03-15T15:46:49.526Z,97811.19
2023-03-15T15:49:18.046Z,97808.97
2023-03-15T15:51:49.428Z,97809.09
2023-03-15T15:54:21.837Z,97811.31
2023-03-15T15:56:58.832Z,97811.03
2023-03-15T15:59:27.128Z,97814.38
2023-03-15T16:02:01.104Z,97818.84
2023-03-15T16:04:29.838Z,97822.91
2023-03-15T16:07:01.527Z,97824.16
2023-03-15T16:09:35.726Z,97819.81
2023-03-15T16:12:11.197Z,97826.50
2023-03-15T16:14:38.733Z,97820.91
2023-03-15T16:17:19.302Z,97828.31
2023-03-15T16:19:46.909Z,97825.41
2023-03-15T16:22:15.162Z,97830.97
2023-03-15T16:24:45.414Z,97825.09
2023-03-15T16:27:16.096Z,97827.63
2023-03-15T16:29:49.198Z,97835.16
2023-03-15T16:32:32.912Z,97835.47
2023-03-15T16:35:15.309Z,97841.72
2023-03-15T16:37:44.401Z,97840.34
2023-03-15T16:40:25.287Z,97834.22
2023-03-15T16:42:53.453Z,97828.78
2023-03-15T16:45:21.229Z,97830.88
2023-03-15T16:47:48.822Z,97843.28
2023-03-15T16:50:17.692Z,97844.38
2023-03-15T16:52:47.960Z,97846.06
2023-03-15T16:55:22.288Z,97844.81
2023-03-15T16:57:49.789Z,97847.75
2023-03-15T17:00:18.229Z,97857.38
2023-03-15T17:02:48.306Z,97856.00
2023-03-15T17:05:18.875Z,97863.50
2023-03-15T17:07:48.762Z,97867.16
2023-03-15T17:10:27.296Z,97875.25
2023-03-15T17:12:56.499Z,97880.81
2023-03-15T17:15:26.608Z,97893.50
2023-03-15T17:17:57.528Z,97883.31
2023-03-15T17:20:28.244Z,97888.19
2023-03-15T17:23:04.520Z,97883.03
2023-03-15T17:25:33.576Z,97883.19
2023-03-15T17:28:01.867Z,97879.13
2023-03-15T17:30:33.211Z,97877.44
2023-03-15T17:33:01.197Z,97895.56
2023-03-15T17:35:39.718Z,97898.03
2023-03-15T17:38:18.061Z,97894.69
2023-03-15T17:40:46.562Z,97897.63
2023-03-15T17:43:16.359Z,97906.81
2023-03-15T17:45:43.993Z,97905.84
2023-03-15T17:48:11.929Z,97902.63
2023-03-15T17:50:42.357Z,97898.44
2023-03-15T17:53:18.976Z,97905.69
2023-03-15T17:55:47.860Z,97903.88
2023-03-15T17:58:24.263Z,97899.69
2023-03-15T18:00:54.475Z,97898.13
2023-03-15T18:03:23.396Z,97906.06
2023-03-15T18:05:51.087Z,97901.88
2023-03-15T18:08:21.213Z,97905.66
2023-03-15T18:10:50.901Z,97912.91
2023-03-15T18:13:21.318Z,97919.16
2023-03-15T18:15:50.084Z,97927.38
2023-03-15T18:18:18.353Z,97918.97
2023-03-15T18:20:47.666Z,97925.38
2023-03-15T18:23:16.922Z,97927.34
2023-03-15T18:25:44.541Z,97935.53
2023-03-15T18:28:12.246Z,97926.88
2023-03-15T18:30:39.802Z,97932.44
2023-03-15T18:33:07.580Z,97924.34
2023-03-15T18:35:36.738Z,97931.47
2023-03-15T18:38:05.492Z,97937.00
2023-03-15T18:40:34.542Z,97935.34
2023-03-15T18:43:04.057Z,97944.25
2023-03-15T18:45:34.671Z,97939.38
2023-03-15T18:48:02.295Z,97942.38
2023-03-15T18:50:31.008Z,97944.59
2023-03-15T18:52:58.697Z,97938.59
2023-03-15T18:55:26.746Z,97944.97
2023-03-15T18:57:55.528Z,97943.84
2023-03-15T19:00:27.302Z,97942.25
2023-03-15T19:02:58.818Z,97946.03
2023-03-15T19:05:28.965Z,97943.25
2023-03-15T19:07:56.816Z,97956.06
2023-03-15T19:10:25.413Z,97947.19
2023-03-15T19:12:53.844Z,97945.38
2023-03-15T19:15:22.680Z,97940.19
2023-03-15T19:17:54.333Z,97937.44
2023-03-15T19:20:22.751Z,97947.19
2023-03-15T19:22:52.176Z,97950.78
2023-03-15T19:25:20.327Z,97950.06
2023-03-15T19:27:48.530Z,97949.25
2023-03-15T19:30:20.665Z,97945.19
2023-03-15T19:32:50.043Z,97954.19
2023-03-15T19:35:19.787Z,97957.25
2023-03-15T19:37:48.517Z,97961.81
2023-03-15T19:40:18.372Z,97963.28
2023-03-15T19:42:46.887Z,97968.25
2023-03-15T19:45:15.631Z,97972.13
2023-03-15T19:47:43.921Z,97972.13
2023-03-15T19:50:14.059Z,97970.72
2023-03-15T19:52:47.782Z,97972.06
2023-03-15T19:55:18.835Z,97974.00
2023-03-15T19:57:46.826Z,97971.81
2023-03-15T20:00:16.614Z,97972.91
2023-03-15T20:02:44.998Z,97975.84
2023-03-15T20:05:16.262Z,97975.84
2023-03-15T20:07:44.007Z,97974.13
2023-03-15T20:10:13.043Z,97985.94
2023-03-15T20:12:45.489Z,97987.03
2023-03-15T20:15:17.006Z,97983.69
2023-03-15T20:17:45.032Z,97983.78
2023-03-15T20:20:13.868Z,97988.38
2023-03-15T20:22:44.294Z,97989.31
2023-03-15T20:25:17.123Z,97992.94
2023-03-15T20:27:44.878Z,97990.16
2023-03-15T20:30:14.684Z,97988.22
2023-03-15T20:32:43.497Z,97985.72
2023-03-15T20:35:12.011Z,97981.66
2023-03-15T20:37:41.453Z,97986.66
2023-03-15T20:40:13.309Z,97985.22
2023-03-15T20:42:42.159Z,97983.56
2023-03-15T20:45:12.323Z,97987.28
2023-03-15T20:47:41.330Z,97989.09
2023-03-15T20:50:11.641Z,97983.69
2023-03-15T20:52:40.777Z,97988.84
2023-03-15T20:55:10.318Z,98000.38
2023-03-15T20:57:41.200Z,97997.00
2023-03-15T21:00:16.737Z,98006.03
2023-03-15T21:02:46.352Z,98002.53
2023-03-15T21:05:14.605Z,97997.25
2023-03-15T21:07:43.136Z,98000.88
2023-03-15T21:10:13.628Z,97994.75
2023-03-15T21:12:41.239Z,98002.06
2023-03-15T21:15:08.961Z,98003.63
2023-03-15T21:17:36.468Z,98010.72
2023-03-15T21:20:07.170Z,98004.72
2023-03-15T21:22:34.735Z,98006.63
2023-03-15T21:25:02.771Z,97998.00
2023-03-15T21:27:30.317Z,97992.84
2023-03-15T21:29:57.784Z,97992.84
2023-03-15T21:32:25.578Z,97996.19
2023-03-15T21:34:53.225Z,97999.78
2023-03-15T21:37:20.726Z,98011.31
2023-03-15T21:39:48.196Z,98001.00
2023-03-15T21:42:15.698Z,97998.22
2023-03-15T21:44:43.212Z,97997.41
2023-03-15T21:47:11.523Z,97994.63
2023-03-15T21:49:39.198Z,98006.03
2023-03-15T21:52:06.741Z,98001.69
2023-03-15T21:54:34.221Z,97993.22
2023-03-15T21:57:01.747Z,98001.00
2023-03-15T21:59:29.241Z,98010.59
2023-03-15T22:02:01.580Z,98002.06
2023-03-15T22:04:29.375Z,98007.34
2023-03-15T22:06:56.973Z,97995.84
2023-03-15T22:09:24.514Z,98002.78
2023-03-15T22:11:52.045Z,98004.59
2023-03-15T22:14:19.495Z,98002.91
2023-03-15T22:16:47.007Z,98005.56
2023-03-15T22:19:14.597Z,98002.91
2023-03-15T22:21:42.226Z,98003.78
2023-03-15T22:24:10.554Z,98002.69
2023-03-15T22:26:38.102Z,98004.13
2023-03-15T22:29:05.614Z,98002.06
2023-03-15T22:31:33.356Z,98000.97
2023-03-15T22:34:02.975Z,98014.19
2023-03-15T22:36:34.513Z,98007.09
2023-03-15T22:39:03.429Z,98013.34
2023-03-15T22:41:31.011Z,98008.06
2023-03-15T22:43:58.502Z,98002.78
2023-03-15T22:46:27.507Z,98007.09
2023-03-15T22:48:55.031Z,98002.91
2023-03-15T22:51:22.607Z,98008.31
2023-03-15T22:53:50.185Z,98007.25
2023-03-15T22:56:17.738Z,98004.44
2023-03-15T22:58:45.327Z,98002.53
2023-03-15T23:01:13.108Z,97996.53
2023-03-15T23:03:40.806Z,97990.19
2023-03-15T23:06:08.354Z,97988.38
2023-03-15T23:08:35.840Z,97988.25
2023-03-15T23:11:04.007Z,97988.25
2023-03-15T23:13:31.473Z,97982.00
2023-03-15T23:15:58.996Z,97983.09
2023-03-15T23:18:26.489Z,97984.78
2023-03-15T23:21:04.865Z,97978.50
2023-03-15T23:23:32.338Z,97977.41
2023-03-15T23:25:59.875Z,97979.00
2023-03-15T23:28:27.477Z,97972.13
2023-03-15T23:30:55.411Z,97973.94
2023-03-15T23:33:25.408Z,97975.63
2023-03-15T23:35:53.013Z,97966.63
2023-03-15T23:38:20.620Z,97972.84
2023-03-15T23:40:59.091Z,97974.66
2023-03-15T23:43:27.091Z,97968.53
2023-03-15T23:45:59.703Z,97974.94
2023-03-15T23:48:27.749Z,97973.13
2023-03-15T23:50:58.087Z,97972.03
2023-03-15T23:53:25.889Z,97979.81
2023-03-15T23:55:53.786Z,97979.00
2023-03-15T23:58:21.712Z,97974.22
